Printer image icon. Send To Printer
           

                RAOB DATA MANUAL QUALITY CONTROL (QC) REPORT
                                  MEXICAN
                       From 20170801 through 20170831

 ___DATE___ HOUR REASN DETAILS...

76225/CUU
   20170813  00Z DELET Purged all hgts/temps
   20170818  00Z 10150 10150

2 records found

76256/GYM
   20170801  12Z 10158 10158...Flight equipment failure
   20170802  12Z 10158 10158...Flight equipment failure
   20170803  12Z 10158 10158...Flight equipment failure.
   20170804  12Z 10158 10158...flight equipment failure
   20170805  12Z 10158 10158
   20170806  12Z 10158 10158
   20170808  12Z 10158 10158; Flight equip problems..
   20170809  12Z 10158 10158; Flight equip problem..
   20170810  12Z 10158 10158...Flight equipment failure
   20170811  12Z 10158 10158...Flight equipment failure
   20170812  12Z 10158 10158...Flight equipment failure
   20170813  12Z 10158 10158...Flight equipment failure
   20170814  12Z 10158 10158...flight equipment failure
   20170815  12Z 10158 10158
   20170816  12Z 10158 10158
   20170817  12Z 10158 10158...Flight equipment failure.
   20170818  12Z 10158 10158...Flight equipment failure.
   20170819  12Z 10158 10158; Flight equip problems..
   20170821  12Z 10158 10158; FLIGHT EQUIP PROBLEMS.
   20170822  12Z 10158 10158; FLIGHT EQUIP PROBLEMS.
   20170823  12Z 10158 10158.. FLIGHT EQUIPMENT PROBLEMS.
   20170824  12Z 10158 10158
   20170825  12Z 10158 10158
   20170826  12Z 10158 Flight equipment failure...10158

24 records found

76405/LAP
   20170801  00Z 10158 10158...flight equipment failure
   20170802  00Z 10158 10158...flight equip failure
   20170803  00Z 10158 10158...FLIGHT EQUIP FAILURE.
   20170804  00Z 10158 10158...Flight equipment failure
   20170805  00Z 10158 10158...Flight equipment failure
   20170807  00Z 10158 10158.
   20170812  00Z 10158 10158; Flight equip problems..
   20170815  00Z 10158 10158.
   20170816  00Z 10158 10158.
   20170818  00Z 10158 10158
   20170819  00Z 10158 10158
   20170820  00Z 10158 10158...Flight equipment failure
   20170821  00Z 10158 10158...Flight equipment failure
   20170826  00Z 10158 10158...FLIGHT EQUIPMENT FAILURE.
   20170829  00Z 10158 10158...Flight equipment failure
   20170830  00Z 10158 10158...Flight equipment failure
   20170831  00Z 10158 10158...Flight equipment failure

17 records found

76458/MZT
   20170801  00Z 10159 10159
   20170802  00Z 10159 10159
   20170803  00Z 10159 10159.
   20170814  12Z SHORT Short to 877 mb
   20170815  12Z DELET Purged temps 568-553 mb...non-meteorological lapse 
                       rates
   20170817  00Z 10159 10159.
   20170817  12Z SHORT Short to 533mb.
   20170818  00Z 10159 10159
   20170820  00Z 10159 10159...Unavailable
   20170823  00Z 10159 10159
   20170824  00Z 10159 10159; Not available..
   20170824  12Z DELET Purged temps 798-770 mb...wet bulb effect
   20170825  00Z 10159 10159.
   20170826  00Z 10159 10159.
   20170827  00Z 10159 10159; Not available..
   20170829  00Z 10159 10159...Unavailable
   20170830  00Z 10159 10159...Unavailable
   20170831  00Z 10159 10159...Unavailable

18 records found

76595/CUN
   20170810  00Z SHORT Short to 452mb

1 record found

76612/GDL
   20170801  12Z DELET Purged temps/moisture 716-682 mb...super-adiabatic
                       lapse rate
   20170804  12Z DELET Purged temp/rh 286-199 mb...wet bulb effect
   20170806  12Z DELET Purged temps/moisture 417-405mb for GFS...wet bulb 
                       effect

3 records found

76644/MID
   20170824  12Z 10142 10142

1 record found

76654/MZL
   20170802  00Z 10158 10158...flight equip failure
   20170802  12Z 10158 10158...Flight equipment failure
   20170803  00Z 10158 10158...FLIGHT EQUIP FAILURE.
   20170804  00Z 10158 10158...Flight equipment failure
   20170804  12Z 10158 10158...flight equipment failure
   20170805  00Z 10158 10158...Flight equipment failure
   20170805  12Z 10158 10158
   20170806  00Z 10158 10158...FLIGHT EQUIPMENT FAILURE.
   20170807  00Z 10158 10158.
   20170807  12Z 10158 10158; Flight equip problem..
   20170808  00Z 10158 10158...flight equipment failure
   20170808  12Z 10158 10158; Flight equip problems..
   20170809  00Z 10158 10158...flight equipment failure
   20170809  12Z 10158 10158; Flight equip problem..
   20170810  12Z 10158 10158...Flight equipment failure
   20170811  12Z 10158 10158...Flight equipment failure
   20170812  00Z 10158 10158; Flight equip problems..
   20170813  00Z 10158 10158
   20170814  00Z 10158 10158
   20170814  12Z 10158 10158...flight equipment failure
   20170815  00Z 10158 10158.
   20170816  12Z 10158 10158
   20170817  00Z 10158 10158.
   20170818  00Z 10158 10158
   20170818  12Z 10158 10158...Flight equipment failure.
   20170819  12Z 10158 10158; Flight equip problems..
   20170820  00Z 10158 10158...Flight equipment failure
   20170820  12Z 10158 10158; Flight equip problem..
   20170821  00Z 10158 10158...Flight equipment failure
   20170821  12Z 10158 10158; FLIGHT EQUIP PROBLEMS.
   20170822  00Z 10158 10158...flight equipment failure
   20170823  00Z 10158 10158...flight equipment failure
   20170823  12Z 10158 10158...FLIGHT EQUIPMENT PROBLEMS.
   20170824  00Z 10158 10158; Flight equip problem..
   20170824  12Z 10158 10158
   20170825  00Z 10158 10158...FLIGHT EQUIPMENT FAILURE.
   20170825  12Z 10158 10158
   20170826  12Z 10158 Flight equipment failure...10158
   20170827  00Z 10158 10158; Flight equip problems..
   20170828  00Z 10158 10158; flight equip problem..
   20170828  12Z 10158 10158
   20170829  00Z 10158 10158...Flight equipment failure
   20170829  12Z 10158 10158
   20170830  12Z 10158 10158

44 records found

76679/MEX
   20170825  12Z DELET Purged temps 177-176 mb...non-meteorological lapse 
                       rates

1 record found

76692/HYY
   20170801  00Z 10158 10158...flight equipment failure
   20170802  00Z 10158 10158...flight equip failure


   20170803  00Z 10158 10158...FLIGHT EQUIP FAILURE.
   20170804  00Z 10158 10158...Flight equipment failure
   20170804  12Z 10158 10158...flight equipment failure
   20170805  12Z 10158 10158
   20170806  00Z 10158 10158...FLIGHT EQUIPMENT FAILURE.
   20170807  00Z 10158 10158.
   20170807  12Z 10158 10158; Flight equip problem..
   20170808  00Z 10158 10158...flight equipment failure
   20170808  12Z 10158 10158; Flight equip problems..
   20170809  00Z 10158 10158...flight equipment failure
   20170809  12Z 10158 10158; Flight equip problem..
   20170811  12Z 10144 10144...Power failure
   20170812  00Z 10158 10158; Flight equip problems..
   20170813  00Z 10158 10158
   20170814  00Z 10158 10158
   20170815  00Z 10158 10158.
   20170816  00Z 10158 10158.
   20170817  00Z 10158 10158.
   20170819  00Z 10158 10158
   20170820  00Z 10158 10158...Flight equipment failure
   20170821  00Z 10158 10158...Flight equipment failure
   20170822  00Z 10158 10158...flight equipment failure
   20170823  00Z 10158 10158...flight equipment failure
   20170824  00Z 10158 10158; Flight equip problem..
   20170825  00Z 10158 10158...FLIGHT EQUIPMENT FAILURE.
   20170826  00Z 10158 10158...FLIGHT EQUIPMENT FAILURE.
   20170826  12Z DELET Deleted sfc wind...too strong
   20170827  00Z 10158 10158; Flight equip problems..
   20170828  00Z 10158 10158; Flight equip problem..
   20170829  00Z 10158 10158...Flight equipment failure
   20170830  00Z 10158 10158...Flight equipment failure
   20170831  00Z 10158 10158...Flight equipment failure

34 records found

76805/ACA
   20170801  12Z SHORT Short to 575 mb
   20170809  12Z SHORT Short to 584mb..
   20170828  12Z DELET Purged all hgts..baseline error
                 BASEL

3 records found

76903/TAP
   20170829  00Z SHORT Short to 644 mb
   20170830  00Z DELET Purged temps/moisture 994-992 mb, 872-870 mb, 
                       799-726 mb, 511-507 mb, 414-404 mb...super-
                       adiabatic lapse rate

2 records found



SELECTED STATIONS WITH NO SDM QC:
  76394/MTY  76526/ZAC  76743/VHA




This and related reports are available on the Web at . . .
http://www.nco.ncep.noaa.gov/sib/qap/raobqc/